sensor_id;sensor_type;location;lat;lon;timestamp;noise_LAeq;noise_LA_min;noise_LA_max;noise_LA01;noise_LA95
43787;Laerm;29409;49.306;8.500;2023-10-13T00:00:09;39.72;36.45;42.29;;
43787;Laerm;29409;49.306;8.500;2023-10-13T00:01:25;40.59;36.69;46.52;;
43787;Laerm;29409;49.306;8.500;2023-10-13T00:02:26;39.74;36.45;42.88;;
43787;Laerm;29409;49.306;8.500;2023-10-13T00:03:26;39.24;34.69;41.46;;
43787;Laerm;29409;49.306;8.500;2023-10-13T00:04:38;39.13;35.66;41.46;;
43787;Laerm;29409;49.306;8.500;2023-10-13T00:05:38;38.99;35.66;41.14;;
43787;Laerm;29409;49.306;8.500;2023-10-13T00:06:42;39.59;35.66;42.59;;
43787;Laerm;29409;49.306;8.500;2023-10-13T00:07:42;40.99;36.91;43.68;;
43787;Laerm;29409;49.306;8.500;2023-10-13T00:08:43;40.75;37.12;43.33;;
43787;Laerm;29409;49.306;8.500;2023-10-13T00:09:43;40.33;36.45;43.24;;
43787;Laerm;29409;49.306;8.500;2023-10-13T00:10:43;39.25;36.20;41.82;;
43787;Laerm;29409;49.306;8.500;2023-10-13T00:11:44;39.23;35.36;41.53;;
43787;Laerm;29409;49.306;8.500;2023-10-13T00:12:44;39.26;35.04;41.96;;
43787;Laerm;29409;49.306;8.500;2023-10-13T00:13:49;39.52;35.36;42.98;;
43787;Laerm;29409;49.306;8.500;2023-10-13T00:14:54;39.50;36.45;44.15;;
43787;Laerm;29409;49.306;8.500;2023-10-13T00:15:54;41.93;36.69;52.39;;
43787;Laerm;29409;49.306;8.500;2023-10-13T00:16:58;39.80;36.45;43.44;;
43787;Laerm;29409;49.306;8.500;2023-10-13T00:18:05;39.26;35.66;41.96;;
43787;Laerm;29409;49.306;8.500;2023-10-13T00:19:12;39.48;35.94;42.16;;
43787;Laerm;29409;49.306;8.500;2023-10-13T00:20:13;39.60;36.20;41.68;;
43787;Laerm;29409;49.306;8.500;2023-10-13T00:21:30;39.95;36.69;42.03;;
43787;Laerm;29409;49.306;8.500;2023-10-13T00:22:35;39.82;36.45;42.16;;
43787;Laerm;29409;49.306;8.500;2023-10-13T00:23:40;40.34;37.12;44.15;;
43787;Laerm;29409;49.306;8.500;2023-10-13T00:24:53;41.43;37.70;45.17;;
43787;Laerm;29409;49.306;8.500;2023-10-13T00:26:03;40.02;36.45;42.09;;
43787;Laerm;29409;49.306;8.500;2023-10-13T00:27:03;40.01;36.69;42.03;;
43787;Laerm;29409;49.306;8.500;2023-10-13T00:28:06;40.16;36.91;42.29;;
43787;Laerm;29409;49.306;8.500;2023-10-13T00:29:09;40.13;36.69;43.68;;
43787;Laerm;29409;49.306;8.500;2023-10-13T00:30:16;40.18;36.20;44.07;;
43787;Laerm;29409;49.306;8.500;2023-10-13T00:31:25;40.24;36.69;42.98;;
43787;Laerm;29409;49.306;8.500;2023-10-13T00:32:36;40.68;36.91;46.45;;
43787;Laerm;29409;49.306;8.500;2023-10-13T00:33:40;40.72;37.32;42.88;;
43787;Laerm;29409;49.306;8.500;2023-10-13T00:34:41;41.21;37.52;45.91;;
43787;Laerm;29409;49.306;8.500;2023-10-13T00:35:42;40.24;36.69;42.41;;
43787;Laerm;29409;49.306;8.500;2023-10-13T00:36:42;40.45;37.32;42.71;;
43787;Laerm;29409;49.306;8.500;2023-10-13T00:37:49;40.45;36.45;42.82;;
43787;Laerm;29409;49.306;8.500;2023-10-13T00:38:53;40.36;36.34;42.35;;
43787;Laerm;29409;49.306;8.500;2023-10-13T00:39:56;40.20;36.69;42.29;;
43787;Laerm;29409;49.306;8.500;2023-10-13T00:40:57;39.73;35.66;42.09;;
43787;Laerm;29409;49.306;8.500;2023-10-13T00:42:03;40.01;36.69;42.09;;
43787;Laerm;29409;49.306;8.500;2023-10-13T00:43:08;40.12;36.91;42.53;;
43787;Laerm;29409;49.306;8.500;2023-10-13T00:44:20;40.63;36.69;47.52;;
43787;Laerm;29409;49.306;8.500;2023-10-13T00:45:29;40.43;37.17;43.09;;
43787;Laerm;29409;49.306;8.500;2023-10-13T00:46:33;40.75;37.70;43.19;;
43787;Laerm;29409;49.306;8.500;2023-10-13T00:47:35;41.14;37.88;45.01;;
43787;Laerm;29409;49.306;8.500;2023-10-13T00:48:48;40.76;37.52;43.24;;
43787;Laerm;29409;49.306;8.500;2023-10-13T00:49:52;41.14;37.12;43.54;;
43787;Laerm;29409;49.306;8.500;2023-10-13T00:50:52;40.85;36.91;43.24;;
43787;Laerm;29409;49.306;8.500;2023-10-13T00:51:56;40.57;37.52;42.76;;
43787;Laerm;29409;49.306;8.500;2023-10-13T00:52:57;40.60;37.88;42.41;;
43787;Laerm;29409;49.306;8.500;2023-10-13T00:53:59;40.46;37.52;44.47;;
43787;Laerm;29409;49.306;8.500;2023-10-13T00:55:02;40.48;36.91;42.71;;
43787;Laerm;29409;49.306;8.500;2023-10-13T00:56:05;40.40;36.91;42.65;;
43787;Laerm;29409;49.306;8.500;2023-10-13T00:57:07;40.49;37.32;42.79;;
43787;Laerm;29409;49.306;8.500;2023-10-13T00:58:12;40.81;37.88;44.90;;
43787;Laerm;29409;49.306;8.500;2023-10-13T00:59:15;40.46;36.45;42.65;;
43787;Laerm;29409;49.306;8.500;2023-10-13T01:00:16;40.92;37.88;43.54;;
43787;Laerm;29409;49.306;8.500;2023-10-13T01:01:19;41.04;37.88;43.09;;
43787;Laerm;29409;49.306;8.500;2023-10-13T01:02:32;41.02;38.37;43.09;;
43787;Laerm;29409;49.306;8.500;2023-10-13T01:03:35;41.08;38.05;44.90;;
43787;Laerm;29409;49.306;8.500;2023-10-13T01:04:42;41.28;38.05;44.27;;
43787;Laerm;29409;49.306;8.500;2023-10-13T01:05:42;40.48;36.91;42.59;;
43787;Laerm;29409;49.306;8.500;2023-10-13T01:06:43;40.34;36.45;42.65;;
43787;Laerm;29409;49.306;8.500;2023-10-13T01:07:43;39.63;35.94;41.96;;
43787;Laerm;29409;49.306;8.500;2023-10-13T01:08:45;39.50;35.66;42.35;;
43787;Laerm;29409;49.306;8.500;2023-10-13T01:09:45;39.66;36.69;42.03;;
43787;Laerm;29409;49.306;8.500;2023-10-13T01:10:48;40.11;36.20;43.44;;
43787;Laerm;29409;49.306;8.500;2023-10-13T01:11:49;40.82;37.12;43.58;;
43787;Laerm;29409;49.306;8.500;2023-10-13T01:12:54;40.43;37.12;43.81;;
43787;Laerm;29409;49.306;8.500;2023-10-13T01:13:54;40.93;36.45;45.45;;
43787;Laerm;29409;49.306;8.500;2023-10-13T01:14:54;40.03;36.69;42.22;;
43787;Laerm;29409;49.306;8.500;2023-10-13T01:15:59;39.43;35.94;42.29;;
43787;Laerm;29409;49.306;8.500;2023-10-13T01:17:01;39.59;35.04;42.47;;
43787;Laerm;29409;49.306;8.500;2023-10-13T01:18:08;40.46;37.12;42.64;;
43787;Laerm;29409;49.306;8.500;2023-10-13T01:19:13;39.85;36.20;42.16;;
43787;Laerm;29409;49.306;8.500;2023-10-13T01:20:14;40.08;35.66;47.68;;
43787;Laerm;29409;49.306;8.500;2023-10-13T01:21:25;40.60;36.20;47.96;;
43787;Laerm;29409;49.306;8.500;2023-10-13T01:22:48;39.62;36.20;42.35;;
43787;Laerm;29409;49.306;8.500;2023-10-13T01:23:56;41.84;35.36;55.59;;
43787;Laerm;29409;49.306;8.500;2023-10-13T01:24:57;42.75;36.45;58.70;;
43787;Laerm;29409;49.306;8.500;2023-10-13T01:26:04;40.10;36.91;44.87;;
43787;Laerm;29409;49.306;8.500;2023-10-13T01:27:06;39.69;36.20;41.89;;
43787;Laerm;29409;49.306;8.500;2023-10-13T01:28:15;39.94;35.94;42.03;;
43787;Laerm;29409;49.306;8.500;2023-10-13T01:29:16;39.58;36.20;41.82;;
43787;Laerm;29409;49.306;8.500;2023-10-13T01:30:19;39.66;36.69;42.09;;
43787;Laerm;29409;49.306;8.500;2023-10-13T01:31:26;40.51;36.91;43.93;;
43787;Laerm;29409;49.306;8.500;2023-10-13T01:32:37;40.09;35.36;42.88;;
43787;Laerm;29409;49.306;8.500;2023-10-13T01:33:40;40.01;35.66;42.35;;
43787;Laerm;29409;49.306;8.500;2023-10-13T01:34:41;39.80;35.36;42.41;;
43787;Laerm;29409;49.306;8.500;2023-10-13T01:35:45;40.15;34.69;45.60;;
43787;Laerm;29409;49.306;8.500;2023-10-13T01:36:49;39.88;35.66;42.35;;
43787;Laerm;29409;49.306;8.500;2023-10-13T01:37:51;42.28;34.69;70.12;;
43787;Laerm;29409;49.306;8.500;2023-10-13T01:38:53;39.68;35.94;42.42;;
43787;Laerm;29409;49.306;8.500;2023-10-13T01:39:53;39.73;36.69;42.16;;
43787;Laerm;29409;49.306;8.500;2023-10-13T01:40:53;39.60;36.20;41.89;;
43787;Laerm;29409;49.306;8.500;2023-10-13T01:41:56;39.48;35.66;42.16;;
43787;Laerm;29409;49.306;8.500;2023-10-13T01:42:56;39.46;36.45;42.09;;
43787;Laerm;29409;49.306;8.500;2023-10-13T01:43:57;39.76;36.20;42.53;;
43787;Laerm;29409;49.306;8.500;2023-10-13T01:44:57;39.33;35.94;41.61;;
43787;Laerm;29409;49.306;8.500;2023-10-13T01:46:06;39.34;35.66;41.89;;
43787;Laerm;29409;49.306;8.500;2023-10-13T01:47:06;39.35;35.66;41.82;;
43787;Laerm;29409;49.306;8.500;2023-10-13T01:48:07;40.07;36.91;45.42;;
43787;Laerm;29409;49.306;8.500;2023-10-13T01:49:08;39.50;36.20;41.96;;
43787;Laerm;29409;49.306;8.500;2023-10-13T01:50:08;39.45;36.45;41.75;;
43787;Laerm;29409;49.306;8.500;2023-10-13T01:51:20;39.78;36.91;42.88;;
43787;Laerm;29409;49.306;8.500;2023-10-13T01:52:23;39.67;35.94;41.96;;
43787;Laerm;29409;49.306;8.500;2023-10-13T01:53:25;40.35;36.91;43.90;;
43787;Laerm;29409;49.306;8.500;2023-10-13T01:54:37;39.70;36.69;41.96;;
43787;Laerm;29409;49.306;8.500;2023-10-13T01:55:42;39.40;36.45;42.82;;
43787;Laerm;29409;49.306;8.500;2023-10-13T01:56:45;39.39;36.20;41.96;;
43787;Laerm;29409;49.306;8.500;2023-10-13T01:57:45;39.26;35.94;41.75;;
43787;Laerm;29409;49.306;8.500;2023-10-13T01:58:48;39.38;36.45;41.61;;
43787;Laerm;29409;49.306;8.500;2023-10-13T01:59:48;39.51;36.45;42.30;;
43787;Laerm;29409;49.306;8.500;2023-10-13T02:00:48;39.01;33.90;41.61;;
43787;Laerm;29409;49.306;8.500;2023-10-13T02:01:49;39.02;36.20;41.61;;
43787;Laerm;29409;49.306;8.500;2023-10-13T02:02:51;39.07;35.94;41.55;;
43787;Laerm;29409;49.306;8.500;2023-10-13T02:03:55;38.99;34.69;41.82;;
43787;Laerm;29409;49.306;8.500;2023-10-13T02:05:01;39.27;35.94;42.03;;
43787;Laerm;29409;49.306;8.500;2023-10-13T02:06:02;40.07;36.69;44.54;;
43787;Laerm;29409;49.306;8.500;2023-10-13T02:07:04;42.37;37.12;44.82;;
43787;Laerm;29409;49.306;8.500;2023-10-13T02:08:09;39.85;35.66;43.77;;
43787;Laerm;29409;49.306;8.500;2023-10-13T02:09:11;38.96;35.66;41.61;;
43787;Laerm;29409;49.306;8.500;2023-10-13T02:10:15;39.10;35.36;41.46;;
43787;Laerm;29409;49.306;8.500;2023-10-13T02:11:16;39.18;35.01;41.68;;
43787;Laerm;29409;49.306;8.500;2023-10-13T02:12:18;39.21;35.36;41.82;;
43787;Laerm;29409;49.306;8.500;2023-10-13T02:13:19;39.62;36.45;42.09;;
43787;Laerm;29409;49.306;8.500;2023-10-13T02:14:22;39.58;36.45;42.47;;
43787;Laerm;29409;49.306;8.500;2023-10-13T02:15:23;39.59;36.20;42.22;;
43787;Laerm;29409;49.306;8.500;2023-10-13T02:16:26;39.27;35.36;41.75;;
43787;Laerm;29409;49.306;8.500;2023-10-13T02:17:32;39.12;33.90;41.61;;
43787;Laerm;29409;49.306;8.500;2023-10-13T02:18:41;39.18;34.31;46.95;;
43787;Laerm;29409;49.306;8.500;2023-10-13T02:19:43;38.98;35.04;41.14;;
43787;Laerm;29409;49.306;8.500;2023-10-13T02:20:47;39.03;33.44;41.30;;
43787;Laerm;29409;49.306;8.500;2023-10-13T02:21:54;39.65;36.20;41.68;;
43787;Laerm;29409;49.306;8.500;2023-10-13T02:23:05;40.83;37.70;45.42;;
43787;Laerm;29409;49.306;8.500;2023-10-13T02:24:11;39.97;36.45;42.16;;
43787;Laerm;29409;49.306;8.500;2023-10-13T02:25:18;39.55;36.20;41.82;;
43787;Laerm;29409;49.306;8.500;2023-10-13T02:26:43;39.60;36.20;42.03;;
43787;Laerm;29409;49.306;8.500;2023-10-13T02:27:43;39.59;35.94;43.29;;
43787;Laerm;29409;49.306;8.500;2023-10-13T02:28:44;40.08;35.94;45.39;;
43787;Laerm;29409;49.306;8.500;2023-10-13T02:29:44;39.74;36.69;42.03;;
43787;Laerm;29409;49.306;8.500;2023-10-13T02:30:47;39.85;36.91;42.76;;
43787;Laerm;29409;49.306;8.500;2023-10-13T02:31:50;39.49;36.20;41.89;;
43787;Laerm;29409;49.306;8.500;2023-10-13T02:32:57;39.36;35.94;41.75;;
43787;Laerm;29409;49.306;8.500;2023-10-13T02:34:04;39.18;35.04;42.09;;
43787;Laerm;29409;49.306;8.500;2023-10-13T02:35:08;39.30;35.94;41.96;;
43787;Laerm;29409;49.306;8.500;2023-10-13T02:36:10;40.40;37.32;42.65;;
43787;Laerm;29409;49.306;8.500;2023-10-13T02:37:12;40.23;37.12;43.14;;
43787;Laerm;29409;49.306;8.500;2023-10-13T02:38:13;40.59;37.52;45.72;;
43787;Laerm;29409;49.306;8.500;2023-10-13T02:39:15;40.00;37.12;44.73;;
43787;Laerm;29409;49.306;8.500;2023-10-13T02:40:16;39.93;36.91;42.82;;
43787;Laerm;29409;49.306;8.500;2023-10-13T02:41:23;39.94;36.91;42.22;;
43787;Laerm;29409;49.306;8.500;2023-10-13T02:42:26;41.43;37.12;47.28;;
43787;Laerm;29409;49.306;8.500;2023-10-13T02:43:26;40.39;37.32;42.41;;
43787;Laerm;29409;49.306;8.500;2023-10-13T02:44:33;40.15;37.12;45.51;;
43787;Laerm;29409;49.306;8.500;2023-10-13T02:45:36;39.34;36.69;43.09;;
43787;Laerm;29409;49.306;8.500;2023-10-13T02:46:36;39.97;35.94;44.94;;
43787;Laerm;29409;49.306;8.500;2023-10-13T02:47:39;39.20;35.66;41.30;;
43787;Laerm;29409;49.306;8.500;2023-10-13T02:48:39;40.64;36.69;44.31;;
43787;Laerm;29409;49.306;8.500;2023-10-13T02:49:40;40.29;36.20;44.38;;
43787;Laerm;29409;49.306;8.500;2023-10-13T02:50:54;40.13;36.69;57.10;;
43787;Laerm;29409;49.306;8.500;2023-10-13T02:51:54;42.83;36.69;54.59;;
43787;Laerm;29409;49.306;8.500;2023-10-13T02:52:56;39.92;36.69;42.41;;
43787;Laerm;29409;49.306;8.500;2023-10-13T02:53:56;39.82;36.69;42.22;;
43787;Laerm;29409;49.306;8.500;2023-10-13T02:55:02;39.65;36.69;41.75;;
43787;Laerm;29409;49.306;8.500;2023-10-13T02:56:08;39.79;36.20;43.72;;
43787;Laerm;29409;49.306;8.500;2023-10-13T02:57:13;39.65;35.04;41.61;;
43787;Laerm;29409;49.306;8.500;2023-10-13T02:58:15;39.56;36.20;42.16;;
43787;Laerm;29409;49.306;8.500;2023-10-13T02:59:15;41.24;37.52;47.70;;
43787;Laerm;29409;49.306;8.500;2023-10-13T03:00:19;40.20;37.12;43.09;;
43787;Laerm;29409;49.306;8.500;2023-10-13T03:01:23;40.22;37.12;44.54;;
43787;Laerm;29409;49.306;8.500;2023-10-13T03:02:34;39.74;36.69;42.35;;
43787;Laerm;29409;49.306;8.500;2023-10-13T03:03:42;40.31;36.69;44.83;;
43787;Laerm;29409;49.306;8.500;2023-10-13T03:04:46;40.19;36.91;43.04;;
43787;Laerm;29409;49.306;8.500;2023-10-13T03:06:09;41.24;36.69;51.42;;
43787;Laerm;29409;49.306;8.500;2023-10-13T03:07:12;40.59;38.21;42.35;;
43787;Laerm;29409;49.306;8.500;2023-10-13T03:08:15;40.87;37.88;42.93;;
43787;Laerm;29409;49.306;8.500;2023-10-13T03:09:29;41.07;38.05;43.24;;
43787;Laerm;29409;49.306;8.500;2023-10-13T03:10:39;42.66;38.21;47.44;;
43787;Laerm;29409;49.306;8.500;2023-10-13T03:11:47;42.77;37.52;47.24;;
43787;Laerm;29409;49.306;8.500;2023-10-13T03:12:50;42.40;36.45;47.00;;
43787;Laerm;29409;49.306;8.500;2023-10-13T03:13:51;44.56;39.92;50.95;;
43787;Laerm;29409;49.306;8.500;2023-10-13T03:14:53;43.78;40.03;51.16;;
43787;Laerm;29409;49.306;8.500;2023-10-13T03:16:19;41.98;38.52;49.39;;
43787;Laerm;29409;49.306;8.500;2023-10-13T03:17:20;45.65;41.30;58.35;;
43787;Laerm;29409;49.306;8.500;2023-10-13T03:18:33;46.44;40.53;55.12;;
43787;Laerm;29409;49.306;8.500;2023-10-13T03:19:37;41.82;39.08;45.39;;
43787;Laerm;29409;49.306;8.500;2023-10-13T03:20:38;42.20;39.21;47.14;;
43787;Laerm;29409;49.306;8.500;2023-10-13T03:21:41;42.54;38.52;47.38;;
43787;Laerm;29409;49.306;8.500;2023-10-13T03:22:44;41.40;38.05;46.89;;
43787;Laerm;29409;49.306;8.500;2023-10-13T03:23:45;41.27;37.70;45.72;;
43787;Laerm;29409;49.306;8.500;2023-10-13T03:24:46;41.66;38.37;48.15;;
43787;Laerm;29409;49.306;8.500;2023-10-13T03:25:47;43.22;38.21;49.46;;
43787;Laerm;29409;49.306;8.500;2023-10-13T03:26:50;42.85;38.52;52.47;;
43787;Laerm;29409;49.306;8.500;2023-10-13T03:27:52;40.67;36.69;46.78;;
43787;Laerm;29409;49.306;8.500;2023-10-13T03:28:52;41.24;37.52;45.14;;
43787;Laerm;29409;49.306;8.500;2023-10-13T03:29:53;42.37;38.37;48.20;;
43787;Laerm;29409;49.306;8.500;2023-10-13T03:30:54;41.54;38.21;45.66;;
43787;Laerm;29409;49.306;8.500;2023-10-13T03:31:54;42.21;38.52;46.25;;
43787;Laerm;29409;49.306;8.500;2023-10-13T03:33:07;41.96;38.21;49.28;;
43787;Laerm;29409;49.306;8.500;2023-10-13T03:34:12;41.73;38.37;46.25;;
43787;Laerm;29409;49.306;8.500;2023-10-13T03:35:12;40.93;38.21;45.57;;
43787;Laerm;29409;49.306;8.500;2023-10-13T03:36:14;41.89;38.05;49.02;;
43787;Laerm;29409;49.306;8.500;2023-10-13T03:37:37;41.58;37.32;46.07;;
43787;Laerm;29409;49.306;8.500;2023-10-13T03:38:40;45.77;39.08;57.19;;
43787;Laerm;29409;49.306;8.500;2023-10-13T03:39:41;48.90;40.54;59.10;;
43787;Laerm;29409;49.306;8.500;2023-10-13T03:40:49;43.11;39.46;50.16;;
43787;Laerm;29409;49.306;8.500;2023-10-13T03:41:57;42.08;38.37;51.89;;
43787;Laerm;29409;49.306;8.500;2023-10-13T03:42:58;41.01;37.88;43.99;;
43787;Laerm;29409;49.306;8.500;2023-10-13T03:44:05;41.84;38.21;48.63;;
43787;Laerm;29409;49.306;8.500;2023-10-13T03:45:18;41.84;38.52;46.43;;
43787;Laerm;29409;49.306;8.500;2023-10-13T03:46:18;41.53;38.52;45.83;;
43787;Laerm;29409;49.306;8.500;2023-10-13T03:47:22;42.32;38.52;50.58;;
43787;Laerm;29409;49.306;8.500;2023-10-13T03:48:38;40.91;38.21;43.58;;
43787;Laerm;29409;49.306;8.500;2023-10-13T03:49:55;41.28;37.88;44.54;;
43787;Laerm;29409;49.306;8.500;2023-10-13T03:51:15;41.77;38.81;48.57;;
43787;Laerm;29409;49.306;8.500;2023-10-13T03:52:15;42.41;38.67;47.74;;
43787;Laerm;29409;49.306;8.500;2023-10-13T03:53:22;43.10;40.03;46.55;;
43787;Laerm;29409;49.306;8.500;2023-10-13T03:54:26;41.05;38.05;43.90;;
43787;Laerm;29409;49.306;8.500;2023-10-13T03:55:35;43.19;37.52;53.60;;
43787;Laerm;29409;49.306;8.500;2023-10-13T03:56:38;41.18;38.05;44.27;;
43787;Laerm;29409;49.306;8.500;2023-10-13T03:57:41;41.45;38.37;44.97;;
43787;Laerm;29409;49.306;8.500;2023-10-13T03:58:42;40.90;38.05;45.04;;
43787;Laerm;29409;49.306;8.500;2023-10-13T03:59:45;40.08;37.32;43.14;;
43787;Laerm;29409;49.306;8.500;2023-10-13T04:00:48;40.54;35.66;44.80;;
43787;Laerm;29409;49.306;8.500;2023-10-13T04:01:49;52.28;38.21;70.20;;
43787;Laerm;29409;49.306;8.500;2023-10-13T04:02:53;41.90;38.52;44.90;;
43787;Laerm;29409;49.306;8.500;2023-10-13T04:04:02;42.99;39.21;48.00;;
43787;Laerm;29409;49.306;8.500;2023-10-13T04:05:08;42.98;38.47;50.48;;
43787;Laerm;29409;49.306;8.500;2023-10-13T04:06:09;41.61;38.37;47.22;;
43787;Laerm;29409;49.306;8.500;2023-10-13T04:07:18;41.06;37.88;45.51;;
43787;Laerm;29409;49.306;8.500;2023-10-13T04:08:37;41.53;38.21;44.80;;
43787;Laerm;29409;49.306;8.500;2023-10-13T04:09:49;41.33;37.88;45.36;;
43787;Laerm;29409;49.306;8.500;2023-10-13T04:10:49;41.16;37.32;45.20;;
43787;Laerm;29409;49.306;8.500;2023-10-13T04:11:52;40.99;37.70;44.47;;
43787;Laerm;29409;49.306;8.500;2023-10-13T04:13:13;41.75;38.87;47.12;;
43787;Laerm;29409;49.306;8.500;2023-10-13T04:14:40;41.87;39.21;46.80;;
43787;Laerm;29409;49.306;8.500;2023-10-13T04:16:17;43.46;37.70;51.57;;
43787;Laerm;29409;49.306;8.500;2023-10-13T04:17:24;42.39;39.81;47.59;;
43787;Laerm;29409;49.306;8.500;2023-10-13T04:18:28;41.48;38.81;48.36;;
43787;Laerm;29409;49.306;8.500;2023-10-13T04:19:47;41.17;38.37;44.03;;
43787;Laerm;29409;49.306;8.500;2023-10-13T04:21:05;41.33;38.52;46.66;;
43787;Laerm;29409;49.306;8.500;2023-10-13T04:22:19;41.50;38.05;45.63;;
43787;Laerm;29409;49.306;8.500;2023-10-13T04:23:20;41.17;38.67;44.51;;
43787;Laerm;29409;49.306;8.500;2023-10-13T04:24:25;42.52;38.95;48.46;;
43787;Laerm;29409;49.306;8.500;2023-10-13T04:25:38;43.30;40.03;48.26;;
43787;Laerm;29409;49.306;8.500;2023-10-13T04:26:41;42.77;39.92;48.26;;
43787;Laerm;29409;49.306;8.500;2023-10-13T04:27:59;42.62;39.34;48.29;;
43787;Laerm;29409;49.306;8.500;2023-10-13T04:29:17;46.45;39.58;67.96;;
43787;Laerm;29409;49.306;8.500;2023-10-13T04:31:58;43.29;39.46;48.07;;
43787;Laerm;29409;49.306;8.500;2023-10-13T04:33:00;41.69;39.21;44.52;;
43787;Laerm;29409;49.306;8.500;2023-10-13T04:34:17;42.37;38.67;47.81;;
43787;Laerm;29409;49.306;8.500;2023-10-13T04:35:30;43.85;39.34;52.64;;
43787;Laerm;29409;49.306;8.500;2023-10-13T04:36:40;43.23;38.74;54.16;;
43787;Laerm;29409;49.306;8.500;2023-10-13T04:37:51;45.71;40.63;57.36;;
43787;Laerm;29409;49.306;8.500;2023-10-13T04:39:00;42.83;40.13;48.84;;
43787;Laerm;29409;49.306;8.500;2023-10-13T04:40:01;44.53;40.98;50.46;;
43787;Laerm;29409;49.306;8.500;2023-10-13T04:41:11;43.76;40.80;54.25;;
43787;Laerm;29409;49.306;8.500;2023-10-13T04:42:22;45.23;40.80;54.87;;
43787;Laerm;29409;49.306;8.500;2023-10-13T04:43:45;44.03;41.38;49.60;;
43787;Laerm;29409;49.306;8.500;2023-10-13T04:45:05;43.99;41.61;48.28;;
43787;Laerm;29409;49.306;8.500;2023-10-13T04:46:16;43.43;40.89;47.00;;
43787;Laerm;29409;49.306;8.500;2023-10-13T04:47:35;43.23;40.89;47.32;;
43787;Laerm;29409;49.306;8.500;2023-10-13T04:48:42;43.76;40.88;53.21;;
43787;Laerm;29409;49.306;8.500;2023-10-13T04:49:47;42.71;39.92;45.51;;
43787;Laerm;29409;49.306;8.500;2023-10-13T04:50:48;42.95;40.13;45.28;;
43787;Laerm;29409;49.306;8.500;2023-10-13T04:51:56;43.65;41.14;47.36;;
43787;Laerm;29409;49.306;8.500;2023-10-13T04:53:20;43.62;40.80;47.22;;
43787;Laerm;29409;49.306;8.500;2023-10-13T04:54:29;43.67;40.71;47.67;;
43787;Laerm;29409;49.306;8.500;2023-10-13T04:55:34;43.51;41.06;54.24;;
43787;Laerm;29409;49.306;8.500;2023-10-13T04:56:46;45.81;41.46;53.89;;
43787;Laerm;29409;49.306;8.500;2023-10-13T04:58:05;44.10;40.53;49.79;;
43787;Laerm;29409;49.306;8.500;2023-10-13T04:59:14;43.55;40.80;55.82;;
43787;Laerm;29409;49.306;8.500;2023-10-13T05:00:18;43.61;40.98;47.77;;
43787;Laerm;29409;49.306;8.500;2023-10-13T05:01:21;44.28;40.89;48.10;;
43787;Laerm;29409;49.306;8.500;2023-10-13T05:02:24;44.55;41.53;49.92;;
43787;Laerm;29409;49.306;8.500;2023-10-13T05:03:36;43.32;41.06;46.69;;
43787;Laerm;29409;49.306;8.500;2023-10-13T05:05:14;43.30;40.13;51.56;;
43787;Laerm;29409;49.306;8.500;2023-10-13T05:06:18;42.41;38.52;45.57;;
43787;Laerm;29409;49.306;8.500;2023-10-13T05:07:40;42.06;38.95;44.86;;
43787;Laerm;29409;49.306;8.500;2023-10-13T05:08:59;46.50;40.03;61.91;;
43787;Laerm;29409;49.306;8.500;2023-10-13T05:10:18;42.98;39.92;47.10;;
43787;Laerm;29409;49.306;8.500;2023-10-13T05:11:40;50.98;41.75;61.44;;
43787;Laerm;29409;49.306;8.500;2023-10-13T05:12:59;43.59;40.33;55.54;;
43787;Laerm;29409;49.306;8.500;2023-10-13T05:14:18;59.17;40.98;70.20;;
43787;Laerm;29409;49.306;8.500;2023-10-13T05:15:49;49.24;42.35;61.31;;
43787;Laerm;29409;49.306;8.500;2023-10-13T05:17:08;43.99;40.53;50.73;;
43787;Laerm;29409;49.306;8.500;2023-10-13T05:18:30;43.95;40.43;50.42;;
43787;Laerm;29409;49.306;8.500;2023-10-13T05:19:49;44.72;41.06;52.15;;
43787;Laerm;29409;49.306;8.500;2023-10-13T05:21:08;42.85;39.58;55.89;;
43787;Laerm;29409;49.306;8.500;2023-10-13T05:22:38;46.81;40.62;62.49;;
43787;Laerm;29409;49.306;8.500;2023-10-13T05:24:00;44.18;40.62;49.32;;
43787;Laerm;29409;49.306;8.500;2023-10-13T05:25:19;44.78;41.53;51.97;;
43787;Laerm;29409;49.306;8.500;2023-10-13T05:26:41;47.47;41.96;59.86;;
43787;Laerm;29409;49.306;8.500;2023-10-13T05:28:00;48.10;40.89;62.42;;
43787;Laerm;29409;49.306;8.500;2023-10-13T05:29:18;42.84;40.03;45.77;;
43787;Laerm;29409;49.306;8.500;2023-10-13T05:30:37;43.89;40.71;50.32;;
43787;Laerm;29409;49.306;8.500;2023-10-13T05:31:57;42.99;40.03;46.59;;
43787;Laerm;29409;49.306;8.500;2023-10-13T05:33:23;43.43;40.71;51.37;;
43787;Laerm;29409;49.306;8.500;2023-10-13T05:34:42;48.36;40.89;63.93;;
43787;Laerm;29409;49.306;8.500;2023-10-13T05:36:01;44.41;39.99;53.50;;
43787;Laerm;29409;49.306;8.500;2023-10-13T05:37:20;55.91;40.43;71.22;;
43787;Laerm;29409;49.306;8.500;2023-10-13T05:38:42;45.66;40.33;63.26;;
43787;Laerm;29409;49.306;8.500;2023-10-13T05:40:04;43.16;40.13;48.12;;
43787;Laerm;29409;49.306;8.500;2023-10-13T05:41:22;44.29;39.78;53.35;;
43787;Laerm;29409;49.306;8.500;2023-10-13T05:42:41;49.15;40.33;65.55;;
43787;Laerm;29409;49.306;8.500;2023-10-13T05:44:00;43.59;40.03;55.43;;
43787;Laerm;29409;49.306;8.500;2023-10-13T05:45:19;48.58;40.03;65.86;;
43787;Laerm;29409;49.306;8.500;2023-10-13T05:46:40;42.42;39.46;63.69;;
43787;Laerm;29409;49.306;8.500;2023-10-13T05:47:49;42.62;39.81;54.99;;
43787;Laerm;29409;49.306;8.500;2023-10-13T05:49:02;43.53;37.32;64.15;;
43787;Laerm;29409;49.306;8.500;2023-10-13T05:50:12;49.15;39.70;63.47;;
43787;Laerm;29409;49.306;8.500;2023-10-13T05:51:21;42.46;39.58;45.39;;
43787;Laerm;29409;49.306;8.500;2023-10-13T05:52:42;42.63;38.95;47.91;;
43787;Laerm;29409;49.306;8.500;2023-10-13T05:53:54;47.94;40.43;61.83;;
43787;Laerm;29409;49.306;8.500;2023-10-13T05:55:13;45.41;39.70;61.26;;
43787;Laerm;29409;49.306;8.500;2023-10-13T05:56:32;42.34;39.70;53.98;;
43787;Laerm;29409;49.306;8.500;2023-10-13T05:57:51;46.55;39.70;62.24;;
43787;Laerm;29409;49.306;8.500;2023-10-13T05:59:10;46.57;39.58;65.62;;
43787;Laerm;29409;49.306;8.500;2023-10-13T06:00:29;47.06;39.81;62.31;;
43787;Laerm;29409;49.306;8.500;2023-10-13T06:01:49;44.49;40.43;55.35;;
43787;Laerm;29409;49.306;8.500;2023-10-13T06:03:08;45.00;40.13;53.09;;
43787;Laerm;29409;49.306;8.500;2023-10-13T06:04:27;44.31;40.33;57.74;;
43787;Laerm;29409;49.306;8.500;2023-10-13T06:05:47;43.14;39.70;56.75;;
43787;Laerm;29409;49.306;8.500;2023-10-13T06:07:06;42.79;39.92;52.56;;
43787;Laerm;29409;49.306;8.500;2023-10-13T06:08:26;44.85;40.33;60.56;;
43787;Laerm;29409;49.306;8.500;2023-10-13T06:09:45;48.23;39.70;67.03;;
43787;Laerm;29409;49.306;8.500;2023-10-13T06:11:04;44.36;39.70;61.62;;
43787;Laerm;29409;49.306;8.500;2023-10-13T06:12:24;43.10;39.08;58.89;;
43787;Laerm;29409;49.306;8.500;2023-10-13T06:13:56;44.61;39.68;65.71;;
43787;Laerm;29409;49.306;8.500;2023-10-13T06:15:15;47.04;40.80;69.91;;
43787;Laerm;29409;49.306;8.500;2023-10-13T06:16:34;50.04;39.58;63.15;;
43787;Laerm;29409;49.306;8.500;2023-10-13T06:17:53;43.07;39.70;49.52;;
43787;Laerm;29409;49.306;8.500;2023-10-13T06:19:12;42.44;39.58;48.37;;
43787;Laerm;29409;49.306;8.500;2023-10-13T06:20:33;42.07;38.81;47.19;;
43787;Laerm;29409;49.306;8.500;2023-10-13T06:21:56;46.71;40.03;70.05;;